Fort Worth Nas Jrb/Carswell field
KNFW : now visible

Airfield :











YOU CAN JOIN US ON...

 
LOGIN :

Register | Disclaimer

   EN    FR    IT 

 









Legend :    VFR   Marginal VFR   IFR   Intensive IFR   Very Intensive IFR
Visi :
Ceiling :
>= 8 km
>= 3000ft
5 to 8 km
1000 to 3000 ft
1500m to 5 km
500 to 1000 ft
800 to 1500m
200 to 500 ft
< 800m
< 200 ft
Symbols :   Thunderstorms  Fog  Heavy snow  Heavy precipitations  Wind > 20 kt






- Airport Elevation : 650 ft


KNFW - Fort Worth Nas Jrb/Carswell field

CURRENT METAR :
  • 232252Z 20011G20KT 10SM FEW060 36/21 A3000 RMK AO2 SLP142 T03560211 $

EXPIRED METARs :
  • 232152Z 19010G20KT 10SM SCT060 36/22 A3001 RMK AO2 SLP147 T03560217 $
  • 232052Z 17015G21KT 10SM SCT055 35/22 A3004 RMK AO2 SLP155 T03500217 56023 $
  • 231952Z 17014G21KT 10SM SCT047 BKN060 36/22 A3005 RMK AO2 SLP160 T03560222 $

TAF TAF KNFW
Valid from the 23 at 23:00 until the 24 at 23:00 UTC


2323/2423 18012KT 9999 FEW060 QNH2995INS
FM241000 18006KT 9999 SCT016 QNH3000INS
FM241600 18012G20KT 9999 FEW060 QNH2993INS AUTOMATED SENSOR METWATCH 2404 TIL 2411 T26/2412Z T37/2422Z FN20048
KZFW FIR / North America



MET'MAP, your aeronautical weather chart ! - Copyright ORBIFLY December 2007 - Disclaimer

ORBIFLY MET'MAP TEAM :

Programming & Development : Alexandra Zaïnal
Concept & original design : Baudouin d'Aumeries
Assistance for programming : Marc-Olivier Méhu
Technical & hardware support : Manuel Goepfert

Contact : metmap@orbifly.com




SOURCES & CREDITS :

   NOAA       Earth
Advisory